createdAt,value
2018-04-10T00:00:43.859Z,34.53
2018-04-10T00:03:11.242Z,34.73
2018-04-10T00:05:38.633Z,34.63
2018-04-10T00:08:06.024Z,35.67
2018-04-10T00:10:33.411Z,34.40
2018-04-10T00:13:00.791Z,36.60
2018-04-10T00:15:28.185Z,36.20
2018-04-10T00:17:55.563Z,38.80
2018-04-10T00:20:23.166Z,38.07
2018-04-10T00:22:50.547Z,36.33
2018-04-10T00:25:17.928Z,37.40
2018-04-10T00:27:45.314Z,37.67
2018-04-10T00:30:12.694Z,36.50
2018-04-10T00:32:40.094Z,37.43
2018-04-10T00:35:07.474Z,39.07
2018-04-10T00:37:34.866Z,38.53
2018-04-10T00:40:02.342Z,39.23
2018-04-10T00:42:29.741Z,38.63
2018-04-10T00:44:57.123Z,39.17
2018-04-10T00:47:24.514Z,38.90
2018-04-10T00:49:51.894Z,38.10
2018-04-10T00:52:19.289Z,37.90
2018-04-10T00:54:46.679Z,39.97
2018-04-10T00:57:14.208Z,40.07
2018-04-10T00:59:41.595Z,38.40
2018-04-10T01:02:08.983Z,38.67
2018-04-10T01:04:36.382Z,40.67
2018-04-10T01:07:03.768Z,38.60
2018-04-10T01:09:31.182Z,40.10
2018-04-10T01:11:58.570Z,39.63
2018-04-10T01:14:25.950Z,38.77
2018-04-10T01:16:53.339Z,38.70
2018-04-10T01:19:20.722Z,36.87
2018-04-10T01:21:48.114Z,37.33
2018-04-10T01:24:15.502Z,38.60
2018-04-10T01:26:42.886Z,36.60
2018-04-10T01:29:10.266Z,35.63
2018-04-10T01:31:37.662Z,36.73
2018-04-10T01:34:05.056Z,35.63
2018-04-10T01:36:32.481Z,37.60
2018-04-10T01:38:59.877Z,39.07
2018-04-10T01:41:27.254Z,36.23
2018-04-10T01:43:54.642Z,38.67
2018-04-10T01:46:22.026Z,37.97
2018-04-10T01:48:49.422Z,39.97
2018-04-10T01:51:16.811Z,39.23
2018-04-10T01:53:44.218Z,40.43
2018-04-10T01:56:11.602Z,38.33
2018-04-10T01:58:38.998Z,38.27
2018-04-10T02:01:06.382Z,36.40
2018-04-10T02:03:33.761Z,37.13
2018-04-10T02:06:01.154Z,35.53
2018-04-10T02:08:28.538Z,36.27
2018-04-10T02:10:55.927Z,35.30
2018-04-10T02:13:23.306Z,36.00
2018-04-10T02:15:50.700Z,37.97
2018-04-10T02:18:18.088Z,38.23
2018-04-10T02:20:45.478Z,40.90
2018-04-10T02:23:12.863Z,38.93
2018-04-10T02:25:40.256Z,39.67
2018-04-10T02:28:07.638Z,39.50
2018-04-10T02:30:35.031Z,39.93
2018-04-10T02:33:02.414Z,37.63
2018-04-10T02:35:29.793Z,39.30
2018-04-10T02:37:57.195Z,36.37
2018-04-10T02:40:24.580Z,38.23
2018-04-10T02:42:51.974Z,34.63
2018-04-10T02:45:19.362Z,35.67
2018-04-10T02:47:46.747Z,36.73
2018-04-10T02:50:14.126Z,34.97
2018-04-10T02:52:41.522Z,35.17
2018-04-10T02:55:08.909Z,34.33
2018-04-10T02:57:36.291Z,34.03
2018-04-10T03:00:03.678Z,34.17
2018-04-10T03:02:31.070Z,34.20
2018-04-10T03:04:58.449Z,33.80
2018-04-10T03:07:25.854Z,35.13
2018-04-10T03:09:53.314Z,32.33
2018-04-10T03:12:20.802Z,33.00
2018-04-10T03:14:48.190Z,32.90
2018-04-10T03:17:15.578Z,32.80
2018-04-10T03:19:42.972Z,34.23
2018-04-10T03:22:10.356Z,35.10
2018-04-10T03:24:37.735Z,34.53
2018-04-10T03:27:05.138Z,34.83
2018-04-10T03:29:32.514Z,35.40
2018-04-10T03:31:59.912Z,34.90
2018-04-10T03:34:27.298Z,34.27
2018-04-10T03:36:54.674Z,34.50
2018-04-10T03:39:22.062Z,34.83
2018-04-10T03:41:49.446Z,34.37
2018-04-10T03:44:16.849Z,31.20
2018-04-10T03:46:44.233Z,31.63
2018-04-10T03:49:11.619Z,31.83
2018-04-10T03:51:39.006Z,35.00
2018-04-10T03:54:06.398Z,31.90
2018-04-10T03:56:33.787Z,33.97
2018-04-10T03:59:01.176Z,31.90
2018-04-10T04:01:28.593Z,32.70
2018-04-10T04:03:55.979Z,34.00
2018-04-10T04:06:23.388Z,32.43
2018-04-10T04:08:50.771Z,30.83
2018-04-10T04:11:18.150Z,32.03
2018-04-10T04:13:45.538Z,31.93
2018-04-10T04:16:24.728Z,30.83
2018-04-10T04:19:03.968Z,34.57
2018-04-10T04:21:43.154Z,34.47
2018-04-10T04:24:10.538Z,33.23
2018-04-10T04:26:37.922Z,32.70
2018-04-10T04:29:05.311Z,31.90
2018-04-10T04:31:32.694Z,32.93
2018-04-10T04:34:00.086Z,31.10
2018-04-10T04:36:27.475Z,30.00
2018-04-10T04:38:54.867Z,30.30
2018-04-10T04:41:22.250Z,30.37
2018-04-10T04:43:49.631Z,31.23
2018-04-10T04:46:17.034Z,31.30
2018-04-10T04:48:44.410Z,32.50
2018-04-10T04:51:11.795Z,31.40
2018-04-10T04:53:39.174Z,31.07
2018-04-10T04:56:06.571Z,30.33
2018-04-10T04:58:33.955Z,32.00
2018-04-10T05:01:01.356Z,31.70
2018-04-10T05:03:28.735Z,30.60
2018-04-10T05:05:56.122Z,28.83
2018-04-10T05:08:23.551Z,28.70
2018-04-10T05:10:51.213Z,27.87
2018-04-10T05:13:18.594Z,27.17
2018-04-10T05:15:45.978Z,27.63
2018-04-10T05:18:13.362Z,28.20
2018-04-10T05:20:40.745Z,29.43
2018-04-10T05:23:08.130Z,28.17
2018-04-10T05:25:35.515Z,27.33
2018-04-10T05:28:02.903Z,28.43
2018-04-10T05:30:30.291Z,27.90
2018-04-10T05:32:57.675Z,29.00
2018-04-10T05:35:25.058Z,28.37
2018-04-10T05:37:52.447Z,29.40
2018-04-10T05:40:19.830Z,27.67
2018-04-10T05:42:47.222Z,28.57
2018-04-10T05:45:14.607Z,29.40
2018-04-10T05:47:42.001Z,28.07
2018-04-10T05:50:09.487Z,28.07
2018-04-10T05:52:37.294Z,28.57
2018-04-10T05:55:04.798Z,29.30
2018-04-10T05:57:32.458Z,27.97
2018-04-10T05:59:59.841Z,27.00
2018-04-10T06:02:27.220Z,27.10
2018-04-10T06:04:54.610Z,27.73
2018-04-10T06:07:21.986Z,27.60
2018-04-10T06:09:49.419Z,28.57
2018-04-10T06:12:16.758Z,28.73
2018-04-10T06:14:44.149Z,29.00
2018-04-10T06:17:11.531Z,26.87
2018-04-10T06:19:38.914Z,25.73
2018-04-10T06:22:06.295Z,27.40
2018-04-10T06:24:33.686Z,26.20
2018-04-10T06:27:01.098Z,26.67
2018-04-10T06:29:28.458Z,26.53
2018-04-10T06:31:55.838Z,26.07
2018-04-10T06:34:23.229Z,26.03
2018-04-10T06:36:50.615Z,26.50
2018-04-10T06:39:17.994Z,25.23
2018-04-10T06:41:45.386Z,25.57
2018-04-10T06:44:12.766Z,26.47
2018-04-10T06:46:40.152Z,24.80
2018-04-10T06:49:07.538Z,25.67
2018-04-10T06:51:34.926Z,26.57
2018-04-10T06:54:02.306Z,24.33
2018-04-10T06:56:29.695Z,25.80
2018-04-10T06:58:57.255Z,25.00
2018-04-10T07:01:24.643Z,25.03
2018-04-10T07:03:52.036Z,24.50
2018-04-10T07:06:19.428Z,24.40
2018-04-10T07:08:46.810Z,25.43
2018-04-10T07:11:14.207Z,23.70
2018-04-10T07:13:41.798Z,23.03
2018-04-10T07:16:09.190Z,21.97
2018-04-10T07:18:36.575Z,24.77
2018-04-10T07:21:03.958Z,23.57
2018-04-10T07:23:31.348Z,21.97
2018-04-10T07:25:58.730Z,22.50
2018-04-10T07:28:26.129Z,22.07
2018-04-10T07:30:53.498Z,23.83
2018-04-10T07:33:20.890Z,23.80
2018-04-10T07:35:48.287Z,21.80
2018-04-10T07:38:15.679Z,21.40
2018-04-10T07:40:43.060Z,20.87
2018-04-10T07:43:10.447Z,22.33
2018-04-10T07:45:37.830Z,21.87
2018-04-10T07:48:05.214Z,21.10
2018-04-10T07:50:32.606Z,20.50
2018-04-10T07:52:59.994Z,19.73
2018-04-10T07:55:27.665Z,20.67
2018-04-10T07:57:55.051Z,18.93
2018-04-10T08:00:22.452Z,17.07
2018-04-10T08:02:49.894Z,20.70
2018-04-10T08:05:17.276Z,17.20
2018-04-10T08:07:44.669Z,16.30
2018-04-10T08:10:12.050Z,17.30
2018-04-10T08:12:39.438Z,17.30
2018-04-10T08:15:06.823Z,17.20
2018-04-10T08:17:34.203Z,17.10
2018-04-10T08:20:01.590Z,17.43
2018-04-10T08:22:28.974Z,18.10
2018-04-10T08:24:56.367Z,16.80
2018-04-10T08:27:23.751Z,16.93
2018-04-10T08:29:51.147Z,15.50
2018-04-10T08:32:18.523Z,15.23
2018-04-10T08:34:45.906Z,15.40
2018-04-10T08:37:13.294Z,14.10
2018-04-10T08:39:40.707Z,15.30
2018-04-10T08:42:08.094Z,13.50
2018-04-10T08:44:35.680Z,13.50
2018-04-10T08:47:03.066Z,12.70
2018-04-10T08:49:30.446Z,13.13
2018-04-10T08:51:57.839Z,14.30
2018-04-10T08:54:25.229Z,12.67
2018-04-10T08:56:52.652Z,13.43
2018-04-10T08:59:20.215Z,12.80
2018-04-10T09:01:47.603Z,12.97
2018-04-10T09:04:15.002Z,12.37
2018-04-10T09:06:42.431Z,12.03
2018-04-10T09:09:09.811Z,10.90
2018-04-10T09:11:37.199Z,11.53
2018-04-10T09:14:04.585Z,11.47
2018-04-10T09:16:31.966Z,10.13
2018-04-10T09:18:59.346Z,9.50
2018-04-10T09:21:26.731Z,8.40
2018-04-10T09:23:54.098Z,8.63
2018-04-10T09:26:21.476Z,9.40
2018-04-10T09:28:48.855Z,9.37
2018-04-10T09:31:16.226Z,8.30
2018-04-10T09:33:43.606Z,7.80
2018-04-10T09:36:10.983Z,7.13
2018-04-10T09:38:38.370Z,7.50
2018-04-10T09:41:05.748Z,6.87
2018-04-10T09:43:33.155Z,8.70
2018-04-10T09:46:00.502Z,9.10
2018-04-10T09:48:27.895Z,9.00
2018-04-10T09:50:55.279Z,9.97
2018-04-10T09:53:22.667Z,10.07
2018-04-10T09:55:50.055Z,9.63
2018-04-10T09:58:17.430Z,9.20
2018-04-10T10:00:44.806Z,9.40
2018-04-10T10:03:12.188Z,9.97
2018-04-10T10:05:39.559Z,8.47
2018-04-10T10:08:06.952Z,9.57
2018-04-10T10:10:34.341Z,13.57
2018-04-10T10:13:01.734Z,12.87
2018-04-10T10:15:29.118Z,10.37
2018-04-10T10:17:56.502Z,11.63
2018-04-10T10:20:23.882Z,9.00
2018-04-10T10:22:51.266Z,10.70
2018-04-10T10:25:18.661Z,9.33
2018-04-10T10:27:46.046Z,10.57
2018-04-10T10:30:13.471Z,10.47
2018-04-10T10:32:40.854Z,10.33
2018-04-10T10:35:08.246Z,10.70
2018-04-10T10:37:35.630Z,10.03
2018-04-10T10:40:03.012Z,9.90
2018-04-10T10:42:30.402Z,10.60
2018-04-10T10:44:57.818Z,10.80
2018-04-10T10:47:25.210Z,10.20
2018-04-10T10:49:52.601Z,10.70
2018-04-10T10:52:19.981Z,12.37
2018-04-10T10:54:47.377Z,10.47
2018-04-10T10:57:14.755Z,11.10
2018-04-10T10:59:42.181Z,10.27
2018-04-10T11:02:09.590Z,10.50
2018-04-10T11:04:36.970Z,10.70
2018-04-10T11:07:04.355Z,10.63
2018-04-10T11:09:31.757Z,11.03
2018-04-10T11:11:59.126Z,10.70
2018-04-10T11:14:26.511Z,10.60
2018-04-10T11:16:53.906Z,10.47
2018-04-10T11:19:21.287Z,9.40
2018-04-10T11:21:48.670Z,10.43
2018-04-10T11:24:16.066Z,10.70
2018-04-10T11:26:43.446Z,11.10
2018-04-10T11:29:10.843Z,10.63
2018-04-10T11:31:38.232Z,11.43
2018-04-10T11:34:05.622Z,11.23
2018-04-10T11:36:32.994Z,9.10
2018-04-10T11:39:00.378Z,10.00
2018-04-10T11:41:27.758Z,9.43
2018-04-10T11:43:55.138Z,9.10
2018-04-10T11:46:22.531Z,10.90
2018-04-10T11:48:49.910Z,10.60
2018-04-10T11:51:17.302Z,10.43
2018-04-10T11:53:44.682Z,10.60
2018-04-10T11:56:12.066Z,10.90
2018-04-10T11:58:39.450Z,10.40
2018-04-10T12:01:06.826Z,10.30
2018-04-10T12:03:34.218Z,11.13
2018-04-10T12:06:01.597Z,11.23
2018-04-10T12:08:28.990Z,11.67
2018-04-10T12:10:56.375Z,12.63
2018-04-10T12:13:23.761Z,10.97
2018-04-10T12:15:51.147Z,10.43
2018-04-10T12:18:18.530Z,9.73
2018-04-10T12:20:45.915Z,10.20
2018-04-10T12:23:13.303Z,10.53
2018-04-10T12:25:40.691Z,10.00
2018-04-10T12:28:08.075Z,10.17
2018-04-10T12:30:35.502Z,10.63
2018-04-10T12:33:02.846Z,8.70
2018-04-10T12:35:30.231Z,10.00
2018-04-10T12:37:57.619Z,9.43
2018-04-10T12:40:24.999Z,10.10
2018-04-10T12:42:52.488Z,10.60
2018-04-10T12:45:19.862Z,10.23
2018-04-10T12:47:47.386Z,9.47
2018-04-10T12:50:14.767Z,9.33
2018-04-10T12:52:42.175Z,8.70
2018-04-10T12:55:09.529Z,10.00
2018-04-10T12:57:36.918Z,9.60
2018-04-10T13:00:04.306Z,11.30
2018-04-10T13:02:31.678Z,9.43
2018-04-10T13:04:59.069Z,10.03
2018-04-10T13:07:26.459Z,10.00
2018-04-10T13:09:53.846Z,9.37
2018-04-10T13:12:21.227Z,10.50
2018-04-10T13:14:48.619Z,10.30
2018-04-10T13:17:15.994Z,9.33
2018-04-10T13:19:43.762Z,9.43
2018-04-10T13:22:11.096Z,8.80
2018-04-10T13:24:44.430Z,8.90
2018-04-10T13:27:11.835Z,8.63
2018-04-10T13:29:39.186Z,8.60
2018-04-10T13:32:06.571Z,9.10
2018-04-10T13:34:33.950Z,7.57
2018-04-10T13:37:01.337Z,9.30
2018-04-10T13:39:28.715Z,9.00
2018-04-10T13:41:56.107Z,8.87
2018-04-10T13:44:23.596Z,8.20
2018-04-10T13:46:50.998Z,8.93
2018-04-10T13:49:18.418Z,9.23
2018-04-10T13:51:45.790Z,8.37
2018-04-10T13:54:13.217Z,9.50
2018-04-10T13:56:40.558Z,9.20
2018-04-10T13:59:07.947Z,8.90
2018-04-10T14:01:35.382Z,9.90
2018-04-10T14:04:02.770Z,9.03
2018-04-10T14:06:30.142Z,8.90
2018-04-10T14:08:57.522Z,9.63
2018-04-10T14:11:24.906Z,9.10
2018-04-10T14:13:52.295Z,9.53
2018-04-10T14:16:19.746Z,9.90
2018-04-10T14:18:47.168Z,9.23
2018-04-10T14:21:14.548Z,8.43
2018-04-10T14:23:41.927Z,9.67
2018-04-10T14:26:09.326Z,9.10
2018-04-10T14:28:36.714Z,10.00
2018-04-10T14:31:04.086Z,9.30
2018-04-10T14:33:31.474Z,10.40
2018-04-10T14:35:58.891Z,10.03
2018-04-10T14:38:26.275Z,10.43
2018-04-10T14:40:53.654Z,9.23
2018-04-10T14:43:21.039Z,9.40
2018-04-10T14:45:48.489Z,10.43
2018-04-10T14:48:15.895Z,8.77
2018-04-10T14:50:43.291Z,8.93
2018-04-10T14:53:10.659Z,9.93
2018-04-10T14:55:38.017Z,8.60
2018-04-10T14:58:05.394Z,8.73
2018-04-10T15:00:32.795Z,8.90
2018-04-10T15:03:00.274Z,8.97
2018-04-10T15:05:28.641Z,8.20
2018-04-10T15:08:00.439Z,7.60
2018-04-10T15:10:27.940Z,8.57
2018-04-10T15:12:55.323Z,8.70
2018-04-10T15:15:22.721Z,7.83
2018-04-10T15:17:50.108Z,9.37
2018-04-10T15:20:17.506Z,8.63
2018-04-10T15:22:44.926Z,9.37
2018-04-10T15:25:12.338Z,9.33
2018-04-10T15:27:39.713Z,9.50
2018-04-10T15:30:07.121Z,10.37
2018-04-10T15:32:34.503Z,9.60
2018-04-10T15:35:01.882Z,9.23
2018-04-10T15:37:29.267Z,9.17
2018-04-10T15:39:56.647Z,8.80
2018-04-10T15:42:24.029Z,9.43
2018-04-10T15:44:51.534Z,10.43
2018-04-10T15:47:18.899Z,8.23
2018-04-10T15:49:46.275Z,8.57
2018-04-10T15:52:13.679Z,9.00
2018-04-10T15:54:41.089Z,9.37
2018-04-10T15:57:08.475Z,8.70
2018-04-10T15:59:35.850Z,9.67
2018-04-10T16:02:03.225Z,8.93
2018-04-10T16:04:30.606Z,8.70
2018-04-10T16:06:57.986Z,8.97
2018-04-10T16:09:25.382Z,8.37
2018-04-10T16:11:52.774Z,8.80
2018-04-10T16:14:20.496Z,8.77
2018-04-10T16:16:47.871Z,9.50
2018-04-10T16:19:15.269Z,10.27
2018-04-10T16:21:42.683Z,9.40
2018-04-10T16:24:10.043Z,8.50
2018-04-10T16:26:37.461Z,8.70
2018-04-10T16:29:04.861Z,8.80
2018-04-10T16:31:32.251Z,8.80
2018-04-10T16:33:59.652Z,8.80
2018-04-10T16:36:27.046Z,9.43
2018-04-10T16:38:54.486Z,9.30
2018-04-10T16:41:21.950Z,9.00
2018-04-10T16:43:49.341Z,8.77
2018-04-10T16:46:16.719Z,9.43
2018-04-10T16:48:44.171Z,9.60
2018-04-10T16:51:11.555Z,9.43
2018-04-10T16:53:38.952Z,9.07
2018-04-10T16:56:06.330Z,9.43
2018-04-10T16:58:33.698Z,9.20
2018-04-10T17:01:01.086Z,10.10
2018-04-10T17:03:28.466Z,8.03
2018-04-10T17:05:55.919Z,8.07
2018-04-10T17:08:23.520Z,8.40
2018-04-10T17:10:50.894Z,9.13
2018-04-10T17:13:18.315Z,9.33
2018-04-10T17:15:45.738Z,10.03
2018-04-10T17:18:13.122Z,10.33
2018-04-10T17:20:40.786Z,9.27
2018-04-10T17:23:08.175Z,10.30
2018-04-10T17:25:35.634Z,10.30
2018-04-10T17:28:03.019Z,10.20
2018-04-10T17:30:30.402Z,10.40
2018-04-10T17:32:57.786Z,12.47
2018-04-10T17:35:25.178Z,12.00
2018-04-10T17:37:52.666Z,10.27
2018-04-10T17:40:20.143Z,11.80
2018-04-10T17:42:47.526Z,11.47
2018-04-10T17:45:14.987Z,12.00
2018-04-10T17:47:42.365Z,11.37
2018-04-10T17:52:32.283Z,12.47
2018-04-10T17:54:59.760Z,12.93
2018-04-10T17:57:27.202Z,11.67
2018-04-10T17:59:54.599Z,15.00
2018-04-10T18:02:22.002Z,13.73
2018-04-10T18:04:49.438Z,12.37
2018-04-10T18:07:16.859Z,13.60
2018-04-10T18:09:44.266Z,12.90
2018-04-10T18:12:11.676Z,15.07
2018-04-10T18:14:39.056Z,15.17
2018-04-10T18:17:06.443Z,17.40
2018-04-10T18:19:33.833Z,17.80
2018-04-10T18:22:01.214Z,20.13
2018-04-10T18:24:28.609Z,20.30
2018-04-10T18:26:56.010Z,20.57
2018-04-10T18:29:23.390Z,19.60
2018-04-10T18:31:50.771Z,19.53
2018-04-10T18:34:18.187Z,22.57
2018-04-10T18:36:45.566Z,21.60
2018-04-10T18:39:12.954Z,19.43
2018-04-10T18:41:40.343Z,19.50
2018-04-10T18:44:07.741Z,21.80
2018-04-10T18:46:35.125Z,20.97
2018-04-10T18:49:02.525Z,20.13
2018-04-10T18:51:29.907Z,20.70
2018-04-10T18:53:57.301Z,21.93
2018-04-10T18:56:24.698Z,20.73
2018-04-10T18:58:52.137Z,21.47
2018-04-10T19:01:20.883Z,22.10
2018-04-10T19:03:48.787Z,21.70
2018-04-10T19:06:16.270Z,23.20
2018-04-10T19:08:43.663Z,22.30
2018-04-10T19:11:11.050Z,22.00
2018-04-10T19:13:38.440Z,20.57
2018-04-10T19:16:05.826Z,22.63
2018-04-10T19:18:33.240Z,21.17
2018-04-10T19:21:00.700Z,21.70
2018-04-10T19:23:28.131Z,24.50
2018-04-10T19:25:55.545Z,21.93
2018-04-10T19:28:23.031Z,22.70
2018-04-10T19:30:50.406Z,23.00
2018-04-10T19:33:17.799Z,20.90
2018-04-10T19:35:45.192Z,22.63
2018-04-10T19:38:12.575Z,23.23
2018-04-10T19:40:39.954Z,23.10
2018-04-10T19:43:07.346Z,23.60
2018-04-10T19:45:34.730Z,23.47
2018-04-10T19:48:02.122Z,24.40
2018-04-10T19:50:29.504Z,23.87
2018-04-10T19:52:56.893Z,24.10
2018-04-10T19:55:24.279Z,25.40
2018-04-10T19:57:51.663Z,25.90
2018-04-10T20:00:19.052Z,25.17
2018-04-10T20:02:46.430Z,27.17
2018-04-10T20:05:13.841Z,26.73
2018-04-10T20:07:41.219Z,26.27
2018-04-10T20:10:08.623Z,25.57
2018-04-10T20:12:36.008Z,26.53
2018-04-10T20:15:03.391Z,26.93
2018-04-10T20:17:30.778Z,27.80
2018-04-10T20:19:58.174Z,27.70
2018-04-10T20:22:25.560Z,27.97
2018-04-10T20:24:52.952Z,25.80
2018-04-10T20:27:20.384Z,27.20
2018-04-10T20:29:47.719Z,26.73
2018-04-10T20:32:15.111Z,28.30
2018-04-10T20:34:42.502Z,25.80
2018-04-10T20:37:09.931Z,28.97
2018-04-10T20:39:37.327Z,28.73
2018-04-10T20:42:04.710Z,28.90
2018-04-10T20:44:32.103Z,28.37
2018-04-10T20:46:59.493Z,30.10
2018-04-10T20:49:26.938Z,32.00
2018-04-10T20:51:54.314Z,32.37
2018-04-10T20:54:21.699Z,30.37
2018-04-10T20:56:49.082Z,32.90
2018-04-10T20:59:16.466Z,32.97
2018-04-10T21:01:43.850Z,33.23
2018-04-10T21:04:11.242Z,35.73
2018-04-10T21:06:38.626Z,34.30
2018-04-10T21:09:06.014Z,34.83
2018-04-10T21:11:33.414Z,34.77
2018-04-10T21:14:00.802Z,36.77
2018-04-10T21:16:28.210Z,37.10
2018-04-10T21:18:55.606Z,35.77
2018-04-10T21:21:22.990Z,37.13
2018-04-10T21:23:50.387Z,34.67
2018-04-10T21:26:17.767Z,35.13
2018-04-10T21:28:45.159Z,33.40
2018-04-10T21:31:12.547Z,35.50
2018-04-10T21:33:40.003Z,33.70
2018-04-10T21:36:07.374Z,34.23
2018-04-10T21:38:34.765Z,34.97
2018-04-10T21:41:02.152Z,35.10
2018-04-10T21:43:30.987Z,35.13
2018-04-10T21:45:58.385Z,34.37
2018-04-10T21:48:25.763Z,35.17
2018-04-10T21:50:53.314Z,35.30
2018-04-10T21:53:20.702Z,33.37
2018-04-10T21:55:48.103Z,34.70
2018-04-10T21:58:15.494Z,33.53
2018-04-10T22:00:42.879Z,34.40
2018-04-10T22:03:10.282Z,31.73
2018-04-10T22:05:37.675Z,30.33
2018-04-10T22:08:05.059Z,32.00
2018-04-10T22:10:32.438Z,36.00
2018-04-10T22:12:59.832Z,33.20
2018-04-10T22:15:27.218Z,35.87
2018-04-10T22:17:54.619Z,35.83
2018-04-10T22:20:22.002Z,33.40
2018-04-10T22:22:49.390Z,34.00
2018-04-10T22:25:16.778Z,32.47
2018-04-10T22:27:44.165Z,32.57
2018-04-10T22:30:11.555Z,30.00
2018-04-10T22:32:38.907Z,27.23
2018-04-10T22:35:06.491Z,27.30
2018-04-10T22:37:33.873Z,27.37
2018-04-10T22:40:01.275Z,25.17
2018-04-10T22:42:28.660Z,26.30
2018-04-10T22:44:56.043Z,21.70
2018-04-10T22:47:23.438Z,19.20
2018-04-10T22:49:50.815Z,18.30
2018-04-10T22:52:18.211Z,17.20
2018-04-10T22:54:45.596Z,17.80
2018-04-10T22:57:13.006Z,17.87
2018-04-10T22:59:40.399Z,16.30
2018-04-10T23:02:07.791Z,17.23
2018-04-10T23:04:35.188Z,17.10
2018-04-10T23:07:02.575Z,17.13
2018-04-10T23:09:29.966Z,16.83
2018-04-10T23:11:57.355Z,16.03
2018-04-10T23:14:24.757Z,16.50
2018-04-10T23:16:52.134Z,16.60
2018-04-10T23:19:19.539Z,16.70
2018-04-10T23:21:46.919Z,17.00
2018-04-10T23:24:14.303Z,19.13
2018-04-10T23:26:41.899Z,18.80
2018-04-10T23:29:09.282Z,20.07
2018-04-10T23:31:36.667Z,19.50
2018-04-10T23:34:04.051Z,20.47
2018-04-10T23:36:31.447Z,20.20
2018-04-10T23:38:58.986Z,17.67
2018-04-10T23:41:26.374Z,17.83
2018-04-10T23:43:53.767Z,17.70
2018-04-10T23:46:21.142Z,17.60
2018-04-10T23:48:48.543Z,17.30
2018-04-10T23:51:15.927Z,17.33
2018-04-10T23:53:43.331Z,17.57
2018-04-10T23:56:10.714Z,16.30
2018-04-10T23:58:38.112Z,17.90
